createdAt,value
2018-11-12T00:00:00.292Z,46.88
2018-11-12T00:01:00.474Z,43.46
2018-11-12T00:02:00.652Z,42.72
2018-11-12T00:03:00.828Z,44.43
2018-11-12T00:04:01.004Z,44.92
2018-11-12T00:05:01.180Z,44.68
2018-11-12T00:06:01.356Z,43.21
2018-11-12T00:07:01.534Z,42.72
2018-11-12T00:08:01.714Z,50.29
2018-11-12T00:09:01.890Z,45.90
2018-11-12T00:10:02.072Z,42.48
2018-11-12T00:11:02.241Z,43.21
2018-11-12T00:12:02.421Z,42.24
2018-11-12T00:13:02.596Z,42.24
2018-11-12T00:14:02.775Z,44.43
2018-11-12T00:15:02.959Z,42.48
2018-11-12T00:16:03.129Z,43.95
2018-11-12T00:17:03.305Z,44.19
2018-11-12T00:18:03.489Z,53.47
2018-11-12T00:19:03.662Z,67.14
2018-11-12T00:20:03.841Z,43.21
2018-11-12T00:21:04.017Z,64.70
2018-11-12T00:22:04.291Z,48.34
2018-11-12T00:23:04.368Z,45.17
2018-11-12T00:24:04.547Z,46.63
2018-11-12T00:25:04.725Z,44.19
2018-11-12T00:26:04.903Z,51.03
2018-11-12T00:27:05.086Z,45.90
2018-11-12T00:28:05.261Z,50.78
2018-11-12T00:29:05.430Z,44.92
2018-11-12T00:30:05.609Z,46.39
2018-11-12T00:31:05.801Z,44.68
2018-11-12T00:32:05.963Z,49.56
2018-11-12T00:33:06.140Z,43.21
2018-11-12T00:34:06.322Z,45.90
2018-11-12T00:35:06.492Z,43.95
2018-11-12T00:36:06.683Z,47.85
2018-11-12T00:37:06.847Z,51.51
2018-11-12T00:38:07.023Z,44.43
2018-11-12T00:39:07.201Z,43.95
2018-11-12T00:40:07.376Z,47.61
2018-11-12T00:41:07.553Z,60.55
2018-11-12T00:42:07.734Z,43.70
2018-11-12T00:43:07.914Z,44.19
2018-11-12T00:44:08.091Z,43.95
2018-11-12T00:45:08.258Z,45.65
2018-11-12T00:46:08.437Z,43.46
2018-11-12T00:47:08.615Z,43.70
2018-11-12T00:48:08.789Z,51.03
2018-11-12T00:49:08.966Z,43.95
2018-11-12T00:50:09.140Z,44.92
2018-11-12T00:51:09.321Z,42.97
2018-11-12T00:52:09.498Z,45.41
2018-11-12T00:53:09.674Z,43.95
2018-11-12T00:54:09.852Z,43.21
2018-11-12T00:55:10.031Z,43.70
2018-11-12T00:56:10.207Z,52.49
2018-11-12T00:57:10.388Z,43.46
2018-11-12T00:58:10.558Z,43.95
2018-11-12T00:59:10.747Z,44.68
2018-11-12T01:00:10.913Z,49.32
2018-11-12T01:01:11.090Z,45.41
2018-11-12T01:02:11.267Z,47.36
2018-11-12T01:03:11.442Z,45.90
2018-11-12T01:04:11.677Z,44.43
2018-11-12T01:05:11.804Z,44.43
2018-11-12T01:06:11.974Z,43.70
2018-11-12T01:07:12.152Z,44.43
2018-11-12T01:08:12.331Z,43.95
2018-11-12T01:09:12.506Z,48.10
2018-11-12T01:10:12.685Z,48.10
2018-11-12T01:11:12.859Z,45.17
2018-11-12T01:12:13.033Z,45.17
2018-11-12T01:13:13.212Z,47.85
2018-11-12T01:14:13.392Z,45.41
2018-11-12T01:15:13.579Z,64.45
2018-11-12T01:16:13.865Z,45.65
2018-11-12T01:17:13.927Z,48.58
2018-11-12T01:18:14.103Z,49.07
2018-11-12T01:19:14.280Z,44.92
2018-11-12T01:20:14.458Z,45.41
2018-11-12T01:21:14.638Z,48.10
2018-11-12T01:22:14.812Z,47.61
2018-11-12T01:23:14.982Z,46.63
2018-11-12T01:24:15.159Z,46.14
2018-11-12T01:25:15.336Z,44.92
2018-11-12T01:26:15.512Z,47.85
2018-11-12T01:27:15.692Z,46.63
2018-11-12T01:28:15.868Z,44.43
2018-11-12T01:29:16.043Z,45.41
2018-11-12T01:30:16.221Z,44.92
2018-11-12T01:31:16.397Z,45.41
2018-11-12T01:32:16.575Z,43.95
2018-11-12T01:33:16.764Z,44.68
2018-11-12T01:34:16.931Z,43.46
2018-11-12T01:35:17.110Z,44.68
2018-11-12T01:36:17.288Z,44.43
2018-11-12T01:37:17.466Z,44.43
2018-11-12T01:38:17.644Z,44.19
2018-11-12T01:39:17.820Z,46.63
2018-11-12T01:40:17.993Z,43.95
2018-11-12T01:41:18.175Z,44.68
2018-11-12T01:42:18.351Z,43.95
2018-11-12T01:43:18.536Z,43.46
2018-11-12T01:44:18.712Z,46.14
2018-11-12T01:45:18.882Z,46.39
2018-11-12T01:46:19.058Z,43.95
2018-11-12T01:47:19.235Z,44.92
2018-11-12T01:48:19.412Z,48.34
2018-11-12T01:49:19.585Z,44.92
2018-11-12T01:50:19.769Z,47.85
2018-11-12T01:51:19.942Z,50.05
2018-11-12T01:52:20.120Z,46.88
2018-11-12T01:53:20.293Z,49.56
2018-11-12T01:54:20.470Z,44.43
2018-11-12T01:55:20.655Z,45.90
2018-11-12T01:56:20.829Z,44.43
2018-11-12T01:57:21.002Z,44.68
2018-11-12T01:58:21.182Z,44.43
2018-11-12T01:59:21.359Z,44.92
2018-11-12T02:00:21.534Z,50.05
2018-11-12T02:01:21.713Z,45.90
2018-11-12T02:02:21.889Z,46.39
2018-11-12T02:03:22.065Z,43.46
2018-11-12T02:04:22.240Z,44.92
2018-11-12T02:05:22.418Z,44.92
2018-11-12T02:06:22.594Z,43.46
2018-11-12T02:07:22.772Z,49.56
2018-11-12T02:08:22.947Z,44.19
2018-11-12T02:09:23.125Z,47.36
2018-11-12T02:10:23.300Z,59.81
2018-11-12T02:11:23.477Z,44.92
2018-11-12T02:12:23.657Z,47.12
2018-11-12T02:13:23.831Z,46.39
2018-11-12T02:14:24.012Z,45.90
2018-11-12T02:15:24.186Z,44.19
2018-11-12T02:16:24.364Z,50.29
2018-11-12T02:17:24.541Z,45.17
2018-11-12T02:18:24.718Z,47.61
2018-11-12T02:19:24.896Z,47.85
2018-11-12T02:20:25.071Z,44.43
2018-11-12T02:21:25.247Z,45.17
2018-11-12T02:22:25.447Z,44.92
2018-11-12T02:23:25.603Z,44.92
2018-11-12T02:24:25.779Z,44.19
2018-11-12T02:25:25.957Z,45.41
2018-11-12T02:26:26.133Z,44.68
2018-11-12T02:27:26.312Z,45.41
2018-11-12T02:28:26.488Z,44.68
2018-11-12T02:29:26.693Z,45.65
2018-11-12T02:30:26.845Z,45.90
2018-11-12T02:31:27.060Z,46.39
2018-11-12T02:32:27.205Z,46.14
2018-11-12T02:33:27.469Z,51.51
2018-11-12T02:34:27.555Z,48.10
2018-11-12T02:35:27.733Z,48.83
2018-11-12T02:36:27.913Z,47.12
2018-11-12T02:37:28.089Z,46.88
2018-11-12T02:38:28.268Z,45.90
2018-11-12T02:39:28.443Z,47.61
2018-11-12T02:40:28.621Z,45.90
2018-11-12T02:41:28.795Z,48.58
2018-11-12T02:42:28.977Z,46.88
2018-11-12T02:43:29.148Z,52.73
2018-11-12T02:44:29.325Z,59.08
2018-11-12T02:45:29.519Z,46.39
2018-11-12T02:46:29.682Z,51.51
2018-11-12T02:47:29.855Z,58.11
2018-11-12T02:48:30.032Z,47.85
2018-11-12T02:49:30.219Z,48.34
2018-11-12T02:50:30.387Z,52.25
2018-11-12T02:51:30.566Z,47.36
2018-11-12T02:52:30.741Z,48.83
2018-11-12T02:53:30.920Z,47.85
2018-11-12T02:54:31.101Z,44.92
2018-11-12T02:55:31.274Z,44.68
2018-11-12T02:56:31.453Z,48.34
2018-11-12T02:57:31.643Z,46.14
2018-11-12T02:58:31.806Z,47.36
2018-11-12T02:59:31.985Z,46.14
2018-11-12T03:00:32.165Z,47.36
2018-11-12T03:01:32.338Z,47.12
2018-11-12T03:02:32.511Z,47.61
2018-11-12T03:03:32.689Z,46.88
2018-11-12T03:04:32.863Z,49.07
2018-11-12T03:05:33.046Z,48.10
2018-11-12T03:06:33.226Z,47.36
2018-11-12T03:07:33.426Z,47.12
2018-11-12T03:08:33.580Z,47.12
2018-11-12T03:09:33.753Z,46.88
2018-11-12T03:10:33.947Z,57.62
2018-11-12T03:11:34.111Z,47.12
2018-11-12T03:12:34.287Z,46.39
2018-11-12T03:13:34.468Z,47.12
2018-11-12T03:14:34.638Z,47.85
2018-11-12T03:15:34.815Z,47.36
2018-11-12T03:16:34.994Z,46.88
2018-11-12T03:17:35.171Z,54.44
2018-11-12T03:18:35.346Z,59.33
2018-11-12T03:19:35.529Z,48.58
2018-11-12T03:20:35.706Z,47.61
2018-11-12T03:21:35.885Z,47.61
2018-11-12T03:22:36.064Z,48.58
2018-11-12T03:23:36.231Z,50.78
2018-11-12T03:24:36.409Z,48.10
2018-11-12T03:25:36.589Z,47.12
2018-11-12T03:26:36.768Z,47.85
2018-11-12T03:27:36.960Z,47.85
2018-11-12T03:28:37.121Z,47.61
2018-11-12T03:29:37.292Z,50.54
2018-11-12T03:30:37.470Z,51.03
2018-11-12T03:31:37.647Z,51.03
2018-11-12T03:32:37.824Z,50.54
2018-11-12T03:33:38.000Z,51.03
2018-11-12T03:34:38.176Z,55.42
2018-11-12T03:35:38.347Z,48.34
2018-11-12T03:36:38.529Z,60.79
2018-11-12T03:37:38.707Z,49.56
2018-11-12T03:38:38.886Z,50.29
2018-11-12T03:39:39.154Z,72.27
2018-11-12T03:40:39.231Z,63.72
2018-11-12T03:41:39.406Z,55.66
2018-11-12T03:42:39.585Z,47.61
2018-11-12T03:43:39.763Z,48.34
2018-11-12T03:44:39.938Z,48.58
2018-11-12T03:45:40.111Z,49.56
2018-11-12T03:46:40.288Z,55.91
2018-11-12T03:47:40.466Z,49.56
2018-11-12T03:48:40.638Z,48.83
2018-11-12T03:49:40.816Z,49.32
2018-11-12T03:50:40.993Z,51.27
2018-11-12T03:51:41.167Z,48.58
2018-11-12T03:52:41.352Z,48.58
2018-11-12T03:53:41.523Z,47.61
2018-11-12T03:54:41.701Z,52.73
2018-11-12T03:55:41.876Z,50.29
2018-11-12T03:56:42.052Z,48.10
2018-11-12T03:57:42.232Z,50.29
2018-11-12T03:58:42.406Z,48.83
2018-11-12T03:59:42.581Z,48.83
2018-11-12T04:00:42.764Z,49.32
2018-11-12T04:01:42.937Z,51.51
2018-11-12T04:02:43.113Z,48.83
2018-11-12T04:03:43.291Z,50.54
2018-11-12T04:04:43.462Z,49.32
2018-11-12T04:05:43.644Z,48.58
2018-11-12T04:06:43.815Z,48.58
2018-11-12T04:07:43.999Z,54.69
2018-11-12T04:08:44.181Z,48.83
2018-11-12T04:09:44.349Z,50.05
2018-11-12T04:10:44.530Z,50.05
2018-11-12T04:11:44.700Z,47.85
2018-11-12T04:12:44.884Z,47.12
2018-11-12T04:13:45.053Z,50.78
2018-11-12T04:14:45.234Z,48.10
2018-11-12T04:15:45.405Z,53.96
2018-11-12T04:16:45.579Z,59.81
2018-11-12T04:17:45.759Z,50.78
2018-11-12T04:18:45.932Z,49.56
2018-11-12T04:19:46.111Z,50.78
2018-11-12T04:20:46.289Z,48.83
2018-11-12T04:21:46.463Z,48.10
2018-11-12T04:22:46.640Z,50.54
2018-11-12T04:23:46.810Z,48.83
2018-11-12T04:24:46.992Z,49.07
2018-11-12T04:25:47.168Z,56.40
2018-11-12T04:26:47.345Z,52.49
2018-11-12T04:27:47.524Z,51.03
2018-11-12T04:28:47.701Z,51.03
2018-11-12T04:29:47.877Z,53.22
2018-11-12T04:30:48.055Z,48.83
2018-11-12T04:31:48.231Z,48.10
2018-11-12T04:32:48.408Z,51.76
2018-11-12T04:33:48.584Z,51.76
2018-11-12T04:34:48.761Z,52.73
2018-11-12T04:35:48.938Z,54.69
2018-11-12T04:36:49.117Z,50.78
2018-11-12T04:37:49.290Z,58.84
2018-11-12T04:38:49.470Z,54.69
2018-11-12T04:39:49.648Z,48.58
2018-11-12T04:40:49.819Z,48.83
2018-11-12T04:41:49.998Z,47.85
2018-11-12T04:42:50.178Z,48.10
2018-11-12T04:43:50.352Z,55.66
2018-11-12T04:44:50.532Z,54.20
2018-11-12T04:45:50.712Z,49.07
2018-11-12T04:46:50.887Z,53.47
2018-11-12T04:47:51.067Z,50.54
2018-11-12T04:48:51.237Z,49.32
2018-11-12T04:49:51.413Z,61.28
2018-11-12T04:50:51.590Z,76.17
2018-11-12T04:51:51.768Z,61.77
2018-11-12T04:52:51.943Z,55.66
2018-11-12T04:53:52.310Z,59.33
2018-11-12T04:54:52.294Z,57.62
2018-11-12T04:55:52.469Z,52.49
2018-11-12T04:56:52.644Z,52.98
2018-11-12T04:57:52.823Z,55.91
2018-11-12T04:58:53.003Z,57.37
2018-11-12T04:59:53.181Z,52.25
2018-11-12T05:00:53.358Z,67.87
2018-11-12T05:01:53.634Z,54.44
2018-11-12T05:02:53.707Z,54.20
2018-11-12T05:03:53.886Z,57.37
2018-11-12T05:04:54.064Z,51.76
2018-11-12T05:05:54.239Z,50.05
2018-11-12T05:06:54.423Z,51.51
2018-11-12T05:07:54.583Z,50.78
2018-11-12T05:08:54.762Z,53.96
2018-11-12T05:09:54.938Z,52.73
2018-11-12T05:10:55.113Z,49.80
2018-11-12T05:11:55.292Z,50.54
2018-11-12T05:12:55.474Z,49.80
2018-11-12T05:13:55.640Z,50.05
2018-11-12T05:14:55.820Z,49.07
2018-11-12T05:15:55.995Z,66.89
2018-11-12T05:16:56.173Z,53.71
2018-11-12T05:17:56.350Z,53.71
2018-11-12T05:18:56.523Z,52.00
2018-11-12T05:19:56.699Z,63.48
2018-11-12T05:20:56.874Z,68.85
2018-11-12T05:21:57.052Z,56.88
2018-11-12T05:22:57.234Z,56.88
2018-11-12T05:23:57.407Z,50.78
2018-11-12T05:24:57.580Z,55.42
2018-11-12T05:25:57.758Z,77.39
2018-11-12T05:26:57.937Z,63.72
2018-11-12T05:27:58.112Z,68.60
2018-11-12T05:28:58.289Z,65.43
2018-11-12T05:29:58.469Z,68.60
2018-11-12T05:30:58.642Z,70.56
2018-11-12T05:31:58.825Z,53.71
2018-11-12T05:32:59.003Z,53.47
2018-11-12T05:33:59.172Z,55.42
2018-11-12T05:34:59.347Z,55.66
2018-11-12T05:35:59.527Z,59.08
2018-11-12T05:36:59.702Z,53.71
2018-11-12T05:37:59.880Z,56.88
2018-11-12T05:39:00.054Z,52.98
2018-11-12T05:40:00.229Z,53.22
2018-11-12T05:41:00.404Z,55.42
2018-11-12T05:42:00.585Z,55.66
2018-11-12T05:43:00.757Z,53.47
2018-11-12T05:44:00.935Z,53.71
2018-11-12T05:45:01.207Z,65.67
2018-11-12T05:46:01.289Z,62.26
2018-11-12T05:47:01.464Z,60.55
2018-11-12T05:48:01.634Z,60.06
2018-11-12T05:49:01.824Z,57.37
2018-11-12T05:50:02.008Z,71.04
2018-11-12T05:51:02.174Z,62.99
2018-11-12T05:52:02.351Z,59.33
2018-11-12T05:53:02.529Z,60.06
2018-11-12T05:54:02.714Z,55.91
2018-11-12T05:55:02.886Z,52.49
2018-11-12T05:56:03.060Z,52.73
2018-11-12T05:57:03.235Z,51.76
2018-11-12T05:58:03.411Z,51.51
2018-11-12T05:59:03.638Z,50.54
2018-11-12T06:00:03.768Z,65.92
2018-11-12T06:01:03.943Z,78.37
2018-11-12T06:02:04.123Z,79.83
2018-11-12T06:03:04.301Z,80.08
2018-11-12T06:04:04.481Z,81.05
2018-11-12T06:05:04.659Z,79.59
2018-11-12T06:06:04.831Z,80.57
2018-11-12T06:07:05.011Z,61.77
2018-11-12T06:08:05.186Z,55.42
2018-11-12T06:09:05.369Z,55.42
2018-11-12T06:10:05.539Z,59.57
2018-11-12T06:11:05.720Z,64.45
2018-11-12T06:12:05.889Z,60.79
2018-11-12T06:13:06.069Z,60.55
2018-11-12T06:14:06.250Z,60.06
2018-11-12T06:15:06.420Z,65.92
2018-11-12T06:16:06.605Z,61.04
2018-11-12T06:17:06.771Z,62.01
2018-11-12T06:18:07.012Z,60.55
2018-11-12T06:19:07.127Z,62.50
2018-11-12T06:20:07.306Z,59.08
2018-11-12T06:21:07.485Z,62.99
2018-11-12T06:22:07.658Z,59.57
2018-11-12T06:23:07.845Z,60.06
2018-11-12T06:24:08.014Z,64.45
2018-11-12T06:25:08.192Z,63.23
2018-11-12T06:26:08.367Z,62.01
2018-11-12T06:27:08.542Z,64.70
2018-11-12T06:28:08.719Z,60.79
2018-11-12T06:29:08.896Z,61.28
2018-11-12T06:30:09.075Z,69.34
2018-11-12T06:31:09.288Z,63.23
2018-11-12T06:32:09.430Z,62.50
2018-11-12T06:33:09.608Z,69.34
2018-11-12T06:34:09.782Z,56.15
2018-11-12T06:35:09.967Z,68.36
2018-11-12T06:36:10.133Z,59.08
2018-11-12T06:37:10.309Z,62.99
2018-11-12T06:38:10.489Z,57.62
2018-11-12T06:39:10.658Z,60.30
2018-11-12T06:40:10.837Z,64.21
2018-11-12T06:41:11.014Z,63.48
2018-11-12T06:42:11.190Z,64.70
2018-11-12T06:43:11.527Z,77.64
2018-11-12T06:44:11.552Z,60.06
2018-11-12T06:45:11.723Z,66.41
2018-11-12T06:46:11.901Z,58.35
2018-11-12T06:47:12.074Z,70.07
2018-11-12T06:48:12.256Z,57.86
2018-11-12T06:49:12.443Z,59.81
2018-11-12T06:50:12.596Z,59.33
2018-11-12T06:51:12.767Z,78.61
2018-11-12T06:52:13.004Z,74.22
2018-11-12T06:53:13.258Z,65.19
2018-11-12T06:54:13.375Z,60.06
2018-11-12T06:55:13.744Z,60.30
2018-11-12T06:56:13.764Z,72.75
2018-11-12T06:57:13.947Z,85.69
2018-11-12T06:58:14.128Z,80.08
2018-11-12T06:59:14.300Z,82.76
2018-11-12T07:00:14.476Z,78.86
2018-11-12T07:01:14.656Z,77.64
2018-11-12T07:02:14.842Z,75.44
2018-11-12T07:03:15.010Z,80.32
2018-11-12T07:04:15.186Z,77.39
2018-11-12T07:05:15.366Z,76.66
2018-11-12T07:06:15.592Z,77.39
2018-11-12T07:07:15.718Z,74.95
2018-11-12T07:08:15.896Z,77.39
2018-11-12T07:09:16.074Z,76.66
2018-11-12T07:10:16.251Z,76.66
2018-11-12T07:11:16.428Z,77.64
2018-11-12T07:12:16.606Z,65.19
2018-11-12T07:13:16.828Z,76.66
2018-11-12T07:14:16.961Z,77.64
2018-11-12T07:15:17.127Z,71.78
2018-11-12T07:16:17.293Z,60.55
2018-11-12T07:17:17.473Z,58.35
2018-11-12T07:18:17.646Z,77.64
2018-11-12T07:19:17.870Z,70.07
2018-11-12T07:20:18.039Z,75.44
2018-11-12T07:21:18.216Z,63.48
2018-11-12T07:22:18.457Z,62.74
2018-11-12T07:23:18.571Z,65.19
2018-11-12T07:24:18.726Z,61.04
2018-11-12T07:25:18.969Z,61.04
2018-11-12T07:26:19.082Z,61.28
2018-11-12T07:27:19.258Z,62.01
2018-11-12T07:28:19.436Z,67.63
2018-11-12T07:29:20.528Z,63.72
2018-11-12T07:30:19.756Z,67.87
2018-11-12T07:31:20.082Z,59.57
2018-11-12T07:32:20.118Z,60.79
2018-11-12T07:33:20.277Z,69.09
2018-11-12T07:34:21.367Z,62.50
2018-11-12T07:35:20.648Z,63.48
2018-11-12T07:36:20.829Z,74.95
2018-11-12T07:37:20.978Z,72.75
2018-11-12T07:38:21.154Z,69.34
2018-11-12T07:39:21.331Z,73.97
2018-11-12T07:40:21.511Z,77.15
2018-11-12T07:41:21.684Z,62.50
2018-11-12T07:42:21.861Z,63.72
2018-11-12T07:43:22.040Z,56.64
2018-11-12T07:44:22.215Z,61.04
2018-11-12T07:45:22.395Z,66.65
2018-11-12T07:46:22.567Z,63.48
2018-11-12T07:47:22.743Z,65.19
2018-11-12T07:48:22.918Z,66.16
2018-11-12T07:49:23.098Z,76.90
2018-11-12T07:50:23.282Z,59.33
2018-11-12T07:51:23.521Z,65.43
2018-11-12T07:52:23.628Z,73.73
2018-11-12T07:53:23.804Z,67.63
2018-11-12T07:54:23.978Z,66.89
2018-11-12T07:55:24.146Z,69.09
2018-11-12T07:56:24.401Z,65.67
2018-11-12T07:57:24.498Z,64.94
2018-11-12T07:58:24.677Z,66.65
2018-11-12T07:59:24.853Z,66.65
2018-11-12T08:00:25.031Z,70.07
2018-11-12T08:01:25.223Z,64.21
2018-11-12T08:02:25.378Z,59.81
2018-11-12T08:03:25.565Z,57.86
2018-11-12T08:04:25.738Z,68.36
2018-11-12T08:05:25.915Z,75.44
2018-11-12T08:06:26.095Z,67.63
2018-11-12T08:07:26.269Z,69.09
2018-11-12T08:08:26.449Z,63.72
2018-11-12T08:09:26.697Z,59.81
2018-11-12T08:10:26.802Z,59.57
2018-11-12T08:11:26.977Z,65.67
2018-11-12T08:12:27.154Z,67.87
2018-11-12T08:13:27.333Z,62.99
2018-11-12T08:14:27.532Z,62.26
2018-11-12T08:15:27.686Z,66.16
2018-11-12T08:16:27.867Z,70.56
2018-11-12T08:17:28.179Z,58.59
2018-11-12T08:18:28.219Z,71.29
2018-11-12T08:19:28.396Z,64.45
2018-11-12T08:20:28.577Z,67.14
2018-11-12T08:21:28.790Z,64.45
2018-11-12T08:22:28.925Z,66.65
2018-11-12T08:23:29.103Z,62.26
2018-11-12T08:24:29.285Z,62.01
2018-11-12T08:25:29.461Z,63.23
2018-11-12T08:26:29.660Z,68.85
2018-11-12T08:27:29.887Z,65.43
2018-11-12T08:28:29.980Z,66.89
2018-11-12T08:29:30.163Z,67.38
2018-11-12T08:30:30.464Z,67.63
2018-11-12T08:31:30.524Z,62.74
2018-11-12T08:32:30.683Z,66.41
2018-11-12T08:33:30.870Z,58.35
2018-11-12T08:34:31.039Z,65.67
2018-11-12T08:35:31.213Z,72.02
2018-11-12T08:36:31.475Z,66.41
2018-11-12T08:37:31.568Z,72.02
2018-11-12T08:38:31.751Z,64.70
2018-11-12T08:39:32.117Z,66.89
2018-11-12T08:40:32.190Z,60.06
2018-11-12T08:41:32.279Z,68.85
2018-11-12T08:42:32.462Z,63.23
2018-11-12T08:44:32.802Z,66.41
2018-11-12T08:45:32.981Z,67.63
2018-11-12T08:46:33.160Z,77.15
2018-11-12T08:47:33.335Z,64.94
2018-11-12T08:48:33.558Z,60.55
2018-11-12T08:49:33.803Z,57.62
2018-11-12T08:50:33.869Z,58.11
2018-11-12T08:51:34.043Z,72.51
2018-11-12T08:52:34.221Z,61.77
2018-11-12T08:53:34.400Z,63.72
2018-11-12T08:54:34.638Z,61.77
2018-11-12T08:55:34.866Z,68.12
2018-11-12T08:56:34.934Z,68.60
2018-11-12T08:57:35.117Z,83.25
2018-11-12T08:58:35.289Z,78.61
2018-11-12T08:59:35.526Z,82.76
2018-11-12T09:00:35.708Z,72.75
2018-11-12T09:01:35.824Z,73.73
2018-11-12T09:02:36.004Z,81.79
2018-11-12T09:03:36.179Z,64.70
2018-11-12T09:04:36.430Z,67.63
2018-11-12T09:05:36.563Z,63.96
2018-11-12T09:06:36.731Z,64.21
2018-11-12T09:07:36.889Z,63.48
2018-11-12T09:08:37.067Z,59.57
2018-11-12T09:09:37.257Z,65.43
2018-11-12T09:10:37.421Z,58.35
2018-11-12T09:11:37.597Z,58.59
2018-11-12T09:12:37.774Z,86.43
2018-11-12T09:13:37.984Z,61.52
2018-11-12T09:14:38.140Z,63.72
2018-11-12T09:15:38.415Z,74.95
2018-11-12T09:16:38.483Z,69.09
2018-11-12T09:17:38.661Z,64.45
2018-11-12T09:18:38.835Z,63.72
2018-11-12T09:19:39.012Z,69.34
2018-11-12T09:20:39.189Z,62.99
2018-11-12T09:21:39.367Z,69.58
2018-11-12T09:22:39.548Z,59.08
2018-11-12T09:23:39.721Z,67.38
2018-11-12T09:24:39.897Z,60.30
2018-11-12T09:25:40.076Z,62.99
2018-11-12T09:26:40.252Z,60.30
2018-11-12T09:27:40.431Z,73.00
2018-11-12T09:28:40.614Z,69.34
2018-11-12T09:29:40.958Z,66.65
2018-11-12T09:30:42.162Z,88.62
2018-11-12T09:31:41.141Z,85.94
2018-11-12T09:32:41.755Z,77.64
2018-11-12T09:33:41.497Z,64.45
2018-11-12T09:34:41.670Z,67.63
2018-11-12T09:35:41.847Z,65.43
2018-11-12T09:36:42.091Z,67.38
2018-11-12T09:37:42.204Z,66.16
2018-11-12T09:38:42.484Z,61.04
2018-11-12T09:39:42.562Z,62.01
2018-11-12T09:40:42.754Z,63.96
2018-11-12T09:41:42.915Z,65.19
2018-11-12T09:42:43.100Z,67.63
2018-11-12T09:43:43.268Z,65.19
2018-11-12T09:54:45.232Z,62.26
2018-11-12T09:55:45.344Z,72.27
2018-11-12T09:56:45.503Z,65.43
2018-11-12T09:57:45.679Z,61.52
2018-11-12T09:58:45.853Z,60.79
2018-11-12T09:59:46.033Z,63.72
2018-11-12T10:00:46.565Z,67.87
2018-11-12T10:01:46.935Z,64.70
2018-11-12T10:02:47.312Z,63.72
2018-11-12T10:03:48.374Z,62.74
2018-11-12T10:04:48.216Z,66.16
2018-11-12T10:05:48.231Z,63.72
2018-11-12T10:06:48.826Z,63.23
2018-11-12T10:07:49.212Z,67.14
2018-11-12T10:08:50.080Z,73.00
2018-11-12T10:09:49.995Z,65.67
2018-11-12T10:10:50.423Z,68.12
2018-11-12T10:11:50.534Z,67.87
2018-11-12T10:12:51.007Z,71.78
2018-11-12T10:13:52.419Z,60.06
2018-11-12T10:14:51.039Z,80.32
2018-11-12T10:15:51.398Z,63.72
2018-11-12T10:16:52.236Z,63.96
2018-11-12T10:17:52.509Z,69.09
2018-11-12T10:18:49.387Z,62.01
2018-11-12T10:19:49.567Z,66.16
2018-11-12T10:20:49.747Z,82.52
2018-11-12T10:21:49.933Z,81.30
2018-11-12T10:22:50.111Z,80.57
2018-11-12T10:23:50.285Z,80.57
2018-11-12T10:24:50.465Z,82.76
2018-11-12T10:25:50.644Z,81.30
2018-11-12T10:26:50.824Z,80.32
2018-11-12T10:27:51.026Z,80.32
2018-11-12T10:28:51.187Z,80.57
2018-11-12T10:29:51.373Z,80.57
2018-11-12T10:30:51.555Z,82.03
2018-11-12T10:31:51.733Z,73.00
2018-11-12T10:32:51.930Z,66.16
2018-11-12T10:33:52.105Z,61.28
2018-11-12T10:34:52.273Z,61.52
2018-11-12T10:35:52.463Z,61.28
2018-11-12T10:36:52.632Z,68.12
2018-11-12T10:37:52.813Z,61.04
2018-11-12T10:38:53.014Z,61.77
2018-11-12T10:39:53.162Z,62.01
2018-11-12T10:40:53.407Z,63.96
2018-11-12T10:41:53.514Z,63.48
2018-11-12T10:42:53.735Z,64.45
2018-11-12T10:43:53.871Z,62.50
2018-11-12T10:44:54.040Z,70.80
2018-11-12T10:45:54.225Z,70.31
2018-11-12T10:46:54.404Z,69.09
2018-11-12T10:47:54.610Z,80.57
2018-11-12T10:48:54.754Z,67.14
2018-11-12T10:49:54.934Z,69.58
2018-11-12T10:51:04.595Z,78.37
2018-11-12T10:51:55.291Z,66.16
2018-11-12T10:52:55.471Z,63.23
2018-11-12T10:53:55.807Z,67.63
2018-11-12T10:55:04.892Z,66.89
2018-11-12T10:55:56.346Z,73.00
2018-11-12T10:56:56.186Z,65.19
2018-11-12T10:57:56.384Z,66.41
2018-11-12T10:58:56.548Z,64.94
2018-11-12T10:59:56.712Z,62.74
2018-11-12T11:00:56.890Z,82.03
2018-11-12T11:01:57.077Z,84.47
2018-11-12T11:02:57.250Z,85.21
2018-11-12T11:03:57.427Z,84.23
2018-11-12T11:04:57.605Z,85.69
2018-11-12T11:05:57.782Z,84.72
2018-11-12T11:06:57.956Z,76.42
2018-11-12T11:07:58.163Z,56.15
2018-11-12T11:08:58.320Z,62.50
2018-11-12T11:09:58.506Z,74.22
2018-11-12T11:10:58.669Z,59.57
2018-11-12T11:11:58.844Z,65.19
2018-11-12T11:12:59.013Z,61.28
2018-11-12T11:13:59.191Z,60.55
2018-11-12T11:14:59.370Z,67.63
2018-11-12T11:15:59.547Z,69.82
2018-11-12T11:16:59.734Z,62.74
2018-11-12T11:17:59.907Z,74.71
2018-11-12T11:19:00.096Z,64.45
2018-11-12T11:20:00.255Z,62.99
2018-11-12T11:21:00.444Z,65.19
2018-11-12T11:22:00.608Z,64.45
2018-11-12T11:23:00.809Z,62.74
2018-11-12T11:24:00.971Z,65.67
2018-11-12T11:25:01.138Z,62.74
2018-11-12T11:26:01.316Z,65.19
2018-11-12T11:27:01.499Z,64.94
2018-11-12T11:28:01.670Z,57.13
2018-11-12T11:29:01.855Z,73.97
2018-11-12T11:30:02.029Z,69.58
2018-11-12T11:31:02.250Z,66.16
2018-11-12T11:32:02.361Z,70.80
2018-11-12T11:33:02.539Z,64.45
2018-11-12T11:34:02.714Z,61.77
2018-11-12T11:35:02.886Z,67.87
2018-11-12T11:36:03.036Z,57.86
2018-11-12T11:37:03.225Z,66.41
2018-11-12T11:38:03.396Z,66.16
2018-11-12T11:39:03.562Z,59.08
2018-11-12T11:40:03.793Z,71.04
2018-11-12T11:41:03.915Z,66.16
2018-11-12T11:42:04.083Z,60.06
2018-11-12T11:43:04.272Z,73.49
2018-11-12T11:44:04.431Z,62.74
2018-11-12T11:45:04.614Z,71.29
2018-11-12T11:46:04.804Z,59.57
2018-11-12T11:47:04.962Z,63.72
2018-11-12T11:48:05.311Z,62.50
2018-11-12T11:49:05.299Z,63.23
2018-11-12T11:50:05.547Z,69.58
2018-11-12T11:51:05.673Z,64.70
2018-11-12T11:52:05.824Z,67.63
2018-11-12T11:53:05.995Z,66.41
2018-11-12T11:54:06.180Z,61.52
2018-11-12T11:55:06.343Z,57.62
2018-11-12T11:56:06.521Z,61.28
2018-11-12T11:57:06.775Z,61.77
2018-11-12T11:58:06.892Z,59.81
2018-11-12T11:59:07.064Z,58.84
2018-11-12T12:00:07.240Z,70.56
2018-11-12T12:01:07.414Z,58.59
2018-11-12T12:02:07.615Z,59.57
2018-11-12T12:03:07.794Z,63.48
2018-11-12T12:04:07.940Z,59.57
2018-11-12T12:05:08.128Z,58.84
2018-11-12T12:06:08.288Z,57.37
2018-11-12T12:07:08.493Z,67.87
2018-11-12T12:08:08.674Z,64.45
2018-11-12T12:09:08.849Z,56.88
2018-11-12T12:10:09.013Z,62.74
2018-11-12T12:11:09.172Z,61.28
2018-11-12T12:12:09.372Z,58.84
2018-11-12T12:13:09.549Z,58.35
2018-11-12T12:14:09.724Z,69.09
2018-11-12T12:15:09.907Z,67.87
2018-11-12T12:16:10.076Z,67.14
2018-11-12T12:17:10.254Z,61.04
2018-11-12T12:18:10.431Z,68.60
2018-11-12T12:19:10.672Z,64.94
2018-11-12T12:20:10.777Z,63.48
2018-11-12T12:21:10.991Z,66.16
2018-11-12T12:22:11.137Z,68.60
2018-11-12T12:23:11.335Z,74.46
2018-11-12T12:24:11.498Z,61.28
2018-11-12T12:25:11.823Z,62.99
2018-11-12T12:26:11.828Z,59.33
2018-11-12T12:27:12.013Z,56.64
2018-11-12T12:28:12.174Z,59.33
2018-11-12T12:29:12.370Z,62.50
2018-11-12T12:30:12.546Z,71.04
2018-11-12T12:31:12.735Z,60.06
2018-11-12T12:32:12.903Z,68.12
2018-11-12T12:33:13.068Z,61.04
2018-11-12T12:34:13.332Z,62.50
2018-11-12T12:35:13.440Z,61.04
2018-11-12T12:36:13.675Z,67.38
2018-11-12T12:37:13.767Z,61.28
2018-11-12T12:38:13.949Z,59.81
2018-11-12T12:39:14.108Z,63.48
2018-11-12T12:40:14.278Z,56.40
2018-11-12T12:41:14.471Z,60.55
2018-11-12T12:42:14.645Z,62.26
2018-11-12T12:43:14.809Z,57.37
2018-11-12T12:44:15.068Z,60.30
2018-11-12T12:45:15.192Z,68.85
2018-11-12T12:46:15.342Z,59.33
2018-11-12T12:47:15.523Z,63.48
2018-11-12T12:48:15.696Z,67.63
2018-11-12T12:49:15.873Z,61.77
2018-11-12T12:50:16.052Z,67.63
2018-11-12T12:51:16.263Z,68.85
2018-11-12T12:52:16.407Z,62.50
2018-11-12T12:53:16.569Z,59.08
2018-11-12T12:54:16.761Z,63.23
2018-11-12T12:55:16.976Z,57.62
2018-11-12T12:56:17.119Z,61.04
2018-11-12T12:57:17.295Z,64.70
2018-11-12T12:58:17.520Z,67.38
2018-11-12T12:59:17.649Z,59.81
2018-11-12T13:00:17.838Z,70.56
2018-11-12T13:01:17.998Z,56.40
2018-11-12T13:02:18.261Z,60.30
2018-11-12T13:03:18.368Z,60.30
2018-11-12T13:04:18.523Z,65.67
2018-11-12T13:05:18.738Z,68.12